createdAt,value
2018-08-10T00:00:45.058Z,18.60
2018-08-10T00:03:13.500Z,18.50
2018-08-10T00:05:42.568Z,18.50
2018-08-10T00:08:11.557Z,18.40
2018-08-10T00:10:39.943Z,18.30
2018-08-10T00:13:08.307Z,18.30
2018-08-10T00:15:36.690Z,18.20
2018-08-10T00:18:05.248Z,18.10
2018-08-10T00:20:33.952Z,18.10
2018-08-10T00:23:02.387Z,18.00
2018-08-10T00:25:30.788Z,17.90
2018-08-10T00:27:59.224Z,17.90
2018-08-10T00:30:27.717Z,17.90
2018-08-10T00:32:56.105Z,17.80
2018-08-10T00:35:24.489Z,17.80
2018-08-10T00:37:52.883Z,17.80
2018-08-10T00:40:22.413Z,17.70
2018-08-10T00:42:50.887Z,17.70
2018-08-10T00:45:19.875Z,17.70
2018-08-10T00:47:48.770Z,17.70
2018-08-10T00:50:17.867Z,17.70
2018-08-10T00:52:47.347Z,17.60
2018-08-10T00:55:17.757Z,17.40
2018-08-10T00:57:46.591Z,17.30
2018-08-10T01:00:21.718Z,17.20
2018-08-10T01:02:50.544Z,17.20
2018-08-10T01:05:18.992Z,17.10
2018-08-10T01:07:47.373Z,17.10
2018-08-10T01:10:17.194Z,17.00
2018-08-10T01:12:45.648Z,17.00
2018-08-10T01:15:15.469Z,17.00
2018-08-10T01:17:44.252Z,17.00
2018-08-10T01:20:19.006Z,17.00
2018-08-10T01:22:52.707Z,16.90
2018-08-10T01:25:22.455Z,16.90
2018-08-10T01:27:57.843Z,16.90
2018-08-10T01:30:27.651Z,16.90
2018-08-10T01:32:56.198Z,16.90
2018-08-10T01:35:25.202Z,16.90
2018-08-10T01:37:54.010Z,16.80
2018-08-10T01:40:22.426Z,16.80
2018-08-10T01:42:50.848Z,16.80
2018-08-10T01:45:19.302Z,16.80
2018-08-10T01:47:47.738Z,16.80
2018-08-10T01:50:22.736Z,16.70
2018-08-10T01:52:51.139Z,16.70
2018-08-10T01:55:19.595Z,16.70
2018-08-10T01:57:48.074Z,16.70
2018-08-10T02:00:16.480Z,16.70
2018-08-10T02:02:44.805Z,16.60
2018-08-10T02:05:14.352Z,16.60
2018-08-10T02:07:43.046Z,16.60
2018-08-10T02:10:13.443Z,16.50
2018-08-10T02:12:42.814Z,16.50
2018-08-10T02:15:13.103Z,16.40
2018-08-10T02:17:41.468Z,16.40
2018-08-10T02:20:12.216Z,16.30
2018-08-10T02:22:40.626Z,16.30
2018-08-10T02:25:11.342Z,16.30
2018-08-10T02:27:40.247Z,16.30
2018-08-10T02:30:11.275Z,16.30
2018-08-10T02:32:40.643Z,16.30
2018-08-10T02:35:09.061Z,16.30
2018-08-10T02:37:38.139Z,16.30
2018-08-10T02:40:11.644Z,16.30
2018-08-10T02:42:40.111Z,16.30
2018-08-10T02:45:08.773Z,16.20
2018-08-10T02:47:37.193Z,16.20
2018-08-10T02:50:05.599Z,16.20
2018-08-10T02:52:33.992Z,16.20
2018-08-10T02:55:02.318Z,16.20
2018-08-10T02:57:30.737Z,16.10
2018-08-10T02:59:59.107Z,16.10
2018-08-10T03:02:27.797Z,16.10
2018-08-10T03:04:56.163Z,16.10
2018-08-10T03:07:24.563Z,16.10
2018-08-10T03:09:52.965Z,16.10
2018-08-10T03:12:21.368Z,16.00
2018-08-10T03:14:49.770Z,16.00
2018-08-10T03:17:18.152Z,16.00
2018-08-10T03:19:46.589Z,16.00
2018-08-10T03:22:15.063Z,15.90
2018-08-10T03:24:43.609Z,15.90
2018-08-10T03:27:11.993Z,15.90
2018-08-10T03:29:40.328Z,15.90
2018-08-10T03:32:08.726Z,15.90
2018-08-10T03:34:37.143Z,15.90
2018-08-10T03:37:05.885Z,15.90
2018-08-10T03:39:34.280Z,15.90
2018-08-10T03:42:02.767Z,15.80
2018-08-10T03:44:31.292Z,15.80
2018-08-10T03:46:59.681Z,15.80
2018-08-10T03:49:28.106Z,15.80
2018-08-10T03:51:56.566Z,15.80
2018-08-10T03:54:24.993Z,15.80
2018-08-10T03:56:53.430Z,15.80
2018-08-10T03:59:22.008Z,15.80
2018-08-10T04:01:50.416Z,15.80
2018-08-10T04:04:18.825Z,15.80
2018-08-10T04:06:47.165Z,15.80
2018-08-10T04:09:15.779Z,15.80
2018-08-10T04:11:44.175Z,15.80
2018-08-10T04:14:12.562Z,15.80
2018-08-10T04:16:40.924Z,15.70
2018-08-10T04:19:09.268Z,15.70
2018-08-10T04:21:37.636Z,15.70
2018-08-10T04:24:06.028Z,15.60
2018-08-10T04:26:34.974Z,15.60
2018-08-10T04:29:03.434Z,15.60
2018-08-10T04:31:31.814Z,15.50
2018-08-10T04:34:00.191Z,15.50
2018-08-10T04:36:28.599Z,15.50
2018-08-10T04:38:57.012Z,15.40
2018-08-10T04:41:25.473Z,15.40
2018-08-10T04:43:53.822Z,15.40
2018-08-10T04:46:22.312Z,15.40
2018-08-10T04:48:50.697Z,15.40
2018-08-10T04:51:19.094Z,15.40
2018-08-10T04:53:47.490Z,15.40
2018-08-10T04:56:15.871Z,15.40
2018-08-10T04:58:44.227Z,15.40
2018-08-10T05:01:12.573Z,15.40
2018-08-10T05:03:40.964Z,15.40
2018-08-10T05:06:09.349Z,15.40
2018-08-10T05:08:37.845Z,15.40
2018-08-10T05:11:06.285Z,15.40
2018-08-10T05:13:34.636Z,15.40
2018-08-10T05:16:03.008Z,15.40
2018-08-10T05:18:31.367Z,15.40
2018-08-10T05:20:59.729Z,15.40
2018-08-10T05:23:28.098Z,15.40
2018-08-10T05:25:56.489Z,15.40
2018-08-10T05:28:24.823Z,15.40
2018-08-10T05:30:53.191Z,15.30
2018-08-10T05:33:21.535Z,15.30
2018-08-10T05:35:49.865Z,15.30
2018-08-10T05:38:18.221Z,15.30
2018-08-10T05:40:46.571Z,15.30
2018-08-10T05:43:14.912Z,15.30
2018-08-10T05:45:43.249Z,15.30
2018-08-10T05:48:11.624Z,15.30
2018-08-10T05:50:40.347Z,15.30
2018-08-10T05:53:08.729Z,15.30
2018-08-10T05:55:37.076Z,15.30
2018-08-10T05:58:05.630Z,15.30
2018-08-10T06:00:34.112Z,15.30
2018-08-10T06:03:02.492Z,15.40
2018-08-10T06:05:30.879Z,15.40
2018-08-10T06:07:59.179Z,15.40
2018-08-10T06:10:27.572Z,15.50
2018-08-10T06:12:55.921Z,15.50
2018-08-10T06:15:24.337Z,15.50
2018-08-10T06:17:52.743Z,15.50
2018-08-10T06:20:21.128Z,15.50
2018-08-10T06:22:49.612Z,15.70
2018-08-10T06:25:17.940Z,15.80
2018-08-10T06:27:46.366Z,16.20
2018-08-10T06:30:14.801Z,16.70
2018-08-10T06:32:43.171Z,17.10
2018-08-10T06:35:11.592Z,17.40
2018-08-10T06:37:39.935Z,17.70
2018-08-10T06:40:08.341Z,18.20
2018-08-10T06:42:36.877Z,18.40
2018-08-10T06:45:05.925Z,18.30
2018-08-10T06:47:34.435Z,18.10
2018-08-10T06:50:03.080Z,18.30
2018-08-10T06:52:31.494Z,18.10
2018-08-10T06:54:59.842Z,17.90
2018-08-10T06:57:28.200Z,17.80
2018-08-10T06:59:56.739Z,17.70
2018-08-10T07:02:25.579Z,17.60
2018-08-10T07:04:54.517Z,17.70
2018-08-10T07:07:23.196Z,17.90
2018-08-10T07:09:52.089Z,18.10
2018-08-10T07:12:20.584Z,18.10
2018-08-10T07:14:51.103Z,18.10
2018-08-10T07:17:19.582Z,17.80
2018-08-10T07:19:48.299Z,17.80
2018-08-10T07:22:16.925Z,17.80
2018-08-10T07:24:45.312Z,18.10
2018-08-10T07:27:14.372Z,18.10
2018-08-10T07:29:42.903Z,18.30
2018-08-10T07:32:11.358Z,18.20
2018-08-10T07:34:39.860Z,18.20
2018-08-10T07:37:08.369Z,18.00
2018-08-10T07:39:37.888Z,18.20
2018-08-10T07:42:06.454Z,18.30
2018-08-10T07:44:35.210Z,18.50
2018-08-10T07:47:03.707Z,18.70
2018-08-10T07:49:32.088Z,19.20
2018-08-10T07:52:00.639Z,19.20
2018-08-10T07:54:29.202Z,19.10
2018-08-10T07:56:57.580Z,18.90
2018-08-10T07:59:25.959Z,19.10
2018-08-10T08:01:54.615Z,19.50
2018-08-10T08:04:23.104Z,19.90
2018-08-10T08:06:51.965Z,20.40
2018-08-10T08:09:20.389Z,20.50
2018-08-10T08:11:48.828Z,21.00
2018-08-10T08:14:17.288Z,20.90
2018-08-10T08:16:48.614Z,21.30
2018-08-10T08:19:17.620Z,21.10
2018-08-10T08:21:57.584Z,21.10
2018-08-10T08:24:26.036Z,20.80
2018-08-10T08:26:58.297Z,20.40
2018-08-10T08:29:26.755Z,20.40
2018-08-10T08:31:56.173Z,20.30
2018-08-10T08:34:24.761Z,20.50
2018-08-10T08:36:53.379Z,20.60
2018-08-10T08:40:27.691Z,20.40
2018-08-10T08:42:56.561Z,20.50
2018-08-10T08:46:13.078Z,20.70
2018-08-10T08:48:47.612Z,21.10
2018-08-10T08:51:23.788Z,21.80
2018-08-10T08:55:07.020Z,21.90
2018-08-10T08:57:36.396Z,22.10
2018-08-10T09:00:10.792Z,22.40
2018-08-10T09:02:39.314Z,22.30
2018-08-10T09:05:09.115Z,22.30
2018-08-10T09:07:38.014Z,22.40
2018-08-10T09:10:16.175Z,22.60
2018-08-10T09:12:44.945Z,22.60
2018-08-10T09:15:14.956Z,22.70
2018-08-10T09:17:44.361Z,22.80
2018-08-10T09:20:13.103Z,22.70
2018-08-10T09:22:41.508Z,22.50
2018-08-10T09:25:12.924Z,22.50
2018-08-10T09:27:41.387Z,22.50
2018-08-10T09:30:11.364Z,22.70
2018-08-10T09:32:46.314Z,22.30
2018-08-10T09:35:15.264Z,21.80
2018-08-10T09:37:43.903Z,21.40
2018-08-10T09:40:17.424Z,21.90
2018-08-10T09:42:46.412Z,22.00
2018-08-10T09:45:15.595Z,22.40
2018-08-10T09:47:45.250Z,22.40
2018-08-10T09:50:14.456Z,22.60
2018-08-10T09:53:01.140Z,22.40
2018-08-10T09:55:37.661Z,22.70
2018-08-10T09:58:17.444Z,22.50
2018-08-10T10:00:51.207Z,22.00
2018-08-10T10:03:21.070Z,21.60
2018-08-10T10:05:50.560Z,21.60
2018-08-10T10:08:19.491Z,21.60
2018-08-10T10:10:48.004Z,22.00
2018-08-10T10:13:16.467Z,22.50
2018-08-10T10:15:45.069Z,22.40
2018-08-10T10:18:14.890Z,22.10
2018-08-10T10:20:43.881Z,22.20
2018-08-10T10:23:12.428Z,22.40
2018-08-10T10:25:40.964Z,22.90
2018-08-10T10:28:09.415Z,23.20
2018-08-10T10:30:37.869Z,23.90
2018-08-10T10:33:06.398Z,24.10
2018-08-10T10:35:35.033Z,24.40
2018-08-10T10:38:03.492Z,24.00
2018-08-10T10:40:31.994Z,23.60
2018-08-10T10:43:00.466Z,23.90
2018-08-10T10:45:28.875Z,23.90
2018-08-10T10:47:57.280Z,24.10
2018-08-10T10:50:25.658Z,24.10
2018-08-10T10:52:54.062Z,23.70
2018-08-10T10:55:24.603Z,24.30
2018-08-10T10:57:53.255Z,24.40
2018-08-10T11:00:21.894Z,24.40
2018-08-10T11:02:50.926Z,24.60
2018-08-10T11:05:20.458Z,24.60
2018-08-10T11:07:48.956Z,25.00
2018-08-10T11:10:18.512Z,25.20
2018-08-10T11:12:49.946Z,25.40
2018-08-10T11:15:18.428Z,25.30
2018-08-10T11:17:46.945Z,25.60
2018-08-10T11:20:15.419Z,25.60
2018-08-10T11:22:44.055Z,25.00
2018-08-10T11:25:14.132Z,24.20
2018-08-10T11:27:43.253Z,23.80
2018-08-10T11:30:11.957Z,24.30
2018-08-10T11:32:40.599Z,24.60
2018-08-10T11:35:09.533Z,24.10
2018-08-10T11:37:38.041Z,24.10
2018-08-10T11:40:09.571Z,24.40
2018-08-10T11:42:38.275Z,24.60
2018-08-10T11:45:08.756Z,24.70
2018-08-10T11:47:37.417Z,25.10
2018-08-10T11:50:06.274Z,25.40
2018-08-10T11:52:34.894Z,25.40
2018-08-10T11:55:03.292Z,25.40
2018-08-10T11:57:31.739Z,25.50
2018-08-10T12:00:00.100Z,25.60
2018-08-10T12:02:28.531Z,25.90
2018-08-10T12:04:56.922Z,25.80
2018-08-10T12:07:25.313Z,25.50
2018-08-10T12:09:53.782Z,25.30
2018-08-10T12:12:22.230Z,25.60
2018-08-10T12:14:50.571Z,25.40
2018-08-10T12:17:19.050Z,25.50
2018-08-10T12:19:47.429Z,25.80
2018-08-10T12:22:15.931Z,25.90
2018-08-10T12:24:44.292Z,25.80
2018-08-10T12:27:12.633Z,25.60
2018-08-10T12:29:41.096Z,26.00
2018-08-10T12:32:09.523Z,26.30
2018-08-10T12:34:37.932Z,26.90
2018-08-10T12:37:06.478Z,27.00
2018-08-10T12:39:34.831Z,27.10
2018-08-10T12:42:03.203Z,26.60
2018-08-10T12:44:31.575Z,26.70
2018-08-10T12:46:59.988Z,26.60
2018-08-10T12:49:28.431Z,27.00
2018-08-10T12:51:56.791Z,26.60
2018-08-10T12:54:25.182Z,26.90
2018-08-10T12:56:53.657Z,26.80
2018-08-10T12:59:22.049Z,26.30
2018-08-10T13:01:50.435Z,26.40
2018-08-10T13:04:18.941Z,25.80
2018-08-10T13:06:47.292Z,25.30
2018-08-10T13:09:15.698Z,25.40
2018-08-10T13:11:44.202Z,25.10
2018-08-10T13:14:12.585Z,25.20
2018-08-10T13:16:40.976Z,25.30
2018-08-10T13:19:09.354Z,24.90
2018-08-10T13:21:37.763Z,24.70
2018-08-10T13:24:06.111Z,24.90
2018-08-10T13:26:34.539Z,25.30
2018-08-10T13:29:02.944Z,25.50
2018-08-10T13:31:31.371Z,25.50
2018-08-10T13:33:59.891Z,25.80
2018-08-10T13:36:28.283Z,25.70
2018-08-10T13:38:56.647Z,25.60
2018-08-10T13:41:25.034Z,25.60
2018-08-10T13:43:53.466Z,25.30
2018-08-10T13:46:21.891Z,25.10
2018-08-10T13:48:50.333Z,25.00
2018-08-10T13:51:18.740Z,24.80
2018-08-10T13:53:47.152Z,24.90
2018-08-10T13:56:15.501Z,25.00
2018-08-10T13:58:43.860Z,25.60
2018-08-10T14:01:12.238Z,25.90
2018-08-10T14:03:40.688Z,26.10
2018-08-10T14:06:09.101Z,26.10
2018-08-10T14:08:37.536Z,26.00
2018-08-10T14:11:12.427Z,26.10
2018-08-10T14:13:40.827Z,26.10
2018-08-10T14:16:09.316Z,26.10
2018-08-10T14:18:38.850Z,25.60
2018-08-10T14:21:07.280Z,25.10
2018-08-10T14:23:35.644Z,24.90
2018-08-10T14:26:04.103Z,24.70
2018-08-10T14:28:32.525Z,25.10
2018-08-10T14:31:00.900Z,25.50
2018-08-10T14:33:29.400Z,26.20
2018-08-10T14:35:57.689Z,26.70
2018-08-10T14:38:26.245Z,26.90
2018-08-10T14:40:54.848Z,27.30
2018-08-10T14:43:23.432Z,27.50
2018-08-10T14:45:51.960Z,27.30
2018-08-10T14:48:20.351Z,27.40
2018-08-10T14:50:48.840Z,26.60
2018-08-10T14:53:17.293Z,26.10
2018-08-10T14:55:45.678Z,26.30
2018-08-10T14:58:14.101Z,26.70
2018-08-10T15:00:42.645Z,26.70
2018-08-10T15:03:10.977Z,26.80
2018-08-10T15:05:39.496Z,26.70
2018-08-10T15:08:07.856Z,26.50
2018-08-10T15:10:36.427Z,26.80
2018-08-10T15:13:04.973Z,26.90
2018-08-10T15:15:33.404Z,26.80
2018-08-10T15:18:01.822Z,26.80
2018-08-10T15:20:30.813Z,27.10
2018-08-10T15:22:59.311Z,26.80
2018-08-10T15:25:27.706Z,26.60
2018-08-10T15:27:56.144Z,26.20
2018-08-10T15:30:27.588Z,26.00
2018-08-10T15:32:56.120Z,26.20
2018-08-10T15:35:24.519Z,26.10
2018-08-10T15:37:52.917Z,25.90
2018-08-10T15:40:21.525Z,25.30
2018-08-10T15:42:50.059Z,24.90
2018-08-10T15:45:18.802Z,24.70
2018-08-10T15:47:47.635Z,24.60
2018-08-10T15:50:16.146Z,24.80
2018-08-10T15:52:45.398Z,25.00
2018-08-10T15:55:14.531Z,25.00
2018-08-10T15:57:43.172Z,24.70
2018-08-10T16:00:14.408Z,24.70
2018-08-10T16:02:42.852Z,25.00
2018-08-10T16:05:11.739Z,25.00
2018-08-10T16:07:41.364Z,25.00
2018-08-10T16:10:09.997Z,24.90
2018-08-10T16:12:39.659Z,24.60
2018-08-10T16:15:11.030Z,24.40
2018-08-10T16:17:39.525Z,24.20
2018-08-10T16:20:09.522Z,24.00
2018-08-10T16:22:38.014Z,23.70
2018-08-10T16:25:07.586Z,23.40
2018-08-10T16:27:36.153Z,23.30
2018-08-10T16:30:06.311Z,23.20
2018-08-10T16:32:34.890Z,23.30
2018-08-10T16:35:04.760Z,23.40
2018-08-10T16:37:33.213Z,23.50
2018-08-10T16:40:01.695Z,23.60
2018-08-10T16:42:30.083Z,23.50
2018-08-10T16:44:58.503Z,23.50
2018-08-10T16:47:26.993Z,23.30
2018-08-10T16:49:55.338Z,23.20
2018-08-10T16:52:23.734Z,23.10
2018-08-10T16:54:52.123Z,23.10
2018-08-10T16:57:20.624Z,23.10
2018-08-10T16:59:49.056Z,23.00
2018-08-10T17:02:17.428Z,22.90
2018-08-10T17:04:45.891Z,22.80
2018-08-10T17:07:14.201Z,22.80
2018-08-10T17:09:46.574Z,22.60
2018-08-10T17:12:14.947Z,22.60
2018-08-10T17:14:43.512Z,22.50
2018-08-10T17:17:11.917Z,22.60
2018-08-10T17:19:40.302Z,22.60
2018-08-10T17:22:09.147Z,22.60
2018-08-10T17:24:37.578Z,22.70
2018-08-10T17:27:06.010Z,22.80
2018-08-10T17:29:34.465Z,22.90
2018-08-10T17:32:02.851Z,23.10
2018-08-10T17:34:31.245Z,23.20
2018-08-10T17:36:59.658Z,23.30
2018-08-10T17:39:28.057Z,23.30
2018-08-10T17:41:56.513Z,23.20
2018-08-10T17:44:24.852Z,23.10
2018-08-10T17:46:53.319Z,23.10
2018-08-10T17:49:21.788Z,23.10
2018-08-10T17:51:50.206Z,23.20
2018-08-10T17:54:18.630Z,23.20
2018-08-10T17:56:47.120Z,23.10
2018-08-10T17:59:15.607Z,23.10
2018-08-10T18:01:43.931Z,22.90
2018-08-10T18:04:12.324Z,22.90
2018-08-10T18:06:40.804Z,22.90
2018-08-10T18:09:10.154Z,22.80
2018-08-10T18:11:38.842Z,22.80
2018-08-10T18:14:08.151Z,22.80
2018-08-10T18:16:36.671Z,22.80
2018-08-10T18:19:05.158Z,22.70
2018-08-10T18:21:33.907Z,22.60
2018-08-10T18:24:02.324Z,22.40
2018-08-10T18:26:30.757Z,22.40
2018-08-10T18:28:59.179Z,22.30
2018-08-10T18:31:27.675Z,22.20
2018-08-10T18:33:56.115Z,22.10
2018-08-10T18:36:24.660Z,22.00
2018-08-10T18:38:53.057Z,21.90
2018-08-10T18:41:21.490Z,21.80
2018-08-10T18:43:49.955Z,21.70
2018-08-10T18:46:18.370Z,21.60
2018-08-10T18:48:46.913Z,21.50
2018-08-10T18:51:15.257Z,21.40
2018-08-10T18:53:44.023Z,21.30
2018-08-10T18:56:12.473Z,21.20
2018-08-10T18:58:41.383Z,21.10
2018-08-10T19:01:09.915Z,20.90
2018-08-10T19:03:38.276Z,20.80
2018-08-10T19:06:06.666Z,20.70
2018-08-10T19:08:35.148Z,20.50
2018-08-10T19:11:03.900Z,20.40
2018-08-10T19:13:32.504Z,20.30
2018-08-10T19:16:00.922Z,20.20
2018-08-10T19:18:29.694Z,20.10
2018-08-10T19:20:58.117Z,20.00
2018-08-10T19:23:26.553Z,19.80
2018-08-10T19:25:55.065Z,19.70
2018-08-10T19:28:23.412Z,19.60
2018-08-10T19:30:51.811Z,19.50
2018-08-10T19:33:20.240Z,19.40
2018-08-10T19:35:48.646Z,19.20
2018-08-10T19:38:17.149Z,19.10
2018-08-10T19:40:45.496Z,19.00
2018-08-10T19:43:13.881Z,18.90
2018-08-10T19:45:42.340Z,18.70
2018-08-10T19:48:10.726Z,18.60
2018-08-10T19:50:39.149Z,18.60
2018-08-10T19:53:07.588Z,18.50
2018-08-10T19:55:36.055Z,18.40
2018-08-10T19:58:04.544Z,18.30
2018-08-10T20:00:32.946Z,18.20
2018-08-10T20:03:01.399Z,18.20
2018-08-10T20:05:29.789Z,18.10
2018-08-10T20:07:58.246Z,18.00
2018-08-10T20:10:26.670Z,17.90
2018-08-10T20:12:55.743Z,17.80
2018-08-10T20:15:24.322Z,17.70
2018-08-10T20:17:52.663Z,17.70
2018-08-10T20:20:21.098Z,17.60
2018-08-10T20:22:49.619Z,17.50
2018-08-10T20:25:18.076Z,17.40
2018-08-10T20:27:46.511Z,17.30
2018-08-10T20:30:16.801Z,17.30
2018-08-10T20:32:45.875Z,17.20
2018-08-10T20:35:15.864Z,17.10
2018-08-10T20:37:44.316Z,17.00
2018-08-10T20:40:14.890Z,17.00
2018-08-10T20:42:43.866Z,16.90
2018-08-10T20:45:12.993Z,16.80
2018-08-10T20:47:41.808Z,16.80
2018-08-10T20:50:13.543Z,16.70
2018-08-10T20:52:42.397Z,16.60
2018-08-10T20:55:10.921Z,16.60
2018-08-10T20:57:39.296Z,16.50
2018-08-10T21:00:08.395Z,16.40
2018-08-10T21:02:36.822Z,16.30
2018-08-10T21:05:05.559Z,16.30
2018-08-10T21:07:34.095Z,16.30
2018-08-10T21:10:02.543Z,16.40
2018-08-10T21:12:30.928Z,16.40
2018-08-10T21:15:00.351Z,16.40
2018-08-10T21:17:28.921Z,16.50
2018-08-10T21:19:57.361Z,16.60
2018-08-10T21:22:25.772Z,16.60
2018-08-10T21:24:54.333Z,16.60
2018-08-10T21:27:23.336Z,16.70
2018-08-10T21:29:52.704Z,16.80
2018-08-10T21:32:22.592Z,16.90
2018-08-10T21:34:54.690Z,17.10
2018-08-10T21:37:23.418Z,17.20
2018-08-10T21:39:51.889Z,17.20
2018-08-10T21:42:21.128Z,17.30
2018-08-10T21:44:49.612Z,17.40
2018-08-10T21:47:17.958Z,17.50
2018-08-10T21:49:46.328Z,17.50
2018-08-10T21:52:14.912Z,17.50
2018-08-10T21:54:43.430Z,17.60
2018-08-10T21:57:12.499Z,17.60
2018-08-10T21:59:40.925Z,17.60
2018-08-10T22:02:10.627Z,17.70
2018-08-10T22:04:39.035Z,17.60
2018-08-10T22:07:07.519Z,17.60
2018-08-10T22:09:35.896Z,17.60
2018-08-10T22:12:05.310Z,17.50
2018-08-10T22:14:40.025Z,17.50
2018-08-10T22:17:13.991Z,17.40
2018-08-10T22:19:42.737Z,17.40
2018-08-10T22:22:11.870Z,17.40
2018-08-10T22:24:40.261Z,17.30
2018-08-10T22:27:08.900Z,17.30
2018-08-10T22:29:37.311Z,17.30
2018-08-10T22:32:06.327Z,17.30
2018-08-10T22:34:35.094Z,17.30
2018-08-10T22:37:03.706Z,17.30
2018-08-10T22:39:32.555Z,17.20
2018-08-10T22:42:01.208Z,17.30
2018-08-10T22:44:29.622Z,17.30
2018-08-10T22:46:57.948Z,17.20
2018-08-10T22:49:26.359Z,17.20
2018-08-10T22:51:54.726Z,17.10
2018-08-10T22:54:23.114Z,17.00
2018-08-10T22:56:51.478Z,17.00
2018-08-10T22:59:20.087Z,16.90
2018-08-10T23:01:48.524Z,16.90
2018-08-10T23:04:16.890Z,16.90
2018-08-10T23:06:45.388Z,16.90
2018-08-10T23:09:14.011Z,16.90
2018-08-10T23:11:42.400Z,16.90
2018-08-10T23:14:10.792Z,16.90
2018-08-10T23:16:39.254Z,16.80
2018-08-10T23:19:07.815Z,16.90
2018-08-10T23:21:36.336Z,16.90
2018-08-10T23:24:04.775Z,16.90
2018-08-10T23:26:33.113Z,16.90
2018-08-10T23:29:01.509Z,16.90
2018-08-10T23:31:29.973Z,16.80
2018-08-10T23:33:58.475Z,16.80
2018-08-10T23:36:26.872Z,16.80
2018-08-10T23:38:55.312Z,16.80
2018-08-10T23:41:23.727Z,16.80
2018-08-10T23:43:52.194Z,16.80
2018-08-10T23:46:20.643Z,16.80
2018-08-10T23:48:49.076Z,16.80
2018-08-10T23:51:17.517Z,16.80
2018-08-10T23:53:45.931Z,16.70
2018-08-10T23:56:15.463Z,16.70
2018-08-10T23:58:43.904Z,16.70
